Airport Name : Islay

Other Name : Islay

ICAO : EGPI

IATA : ILY

FAA :

Latitude : 55.681944

Longitude : -6.256667

Country : United Kingdom

Local Date and Time : 26 Feb 2021 09:10

 

TAF (Terminal Aerodrome Forecast)

TAF EGPI 260751Z 2609/2618 20009KT 9999 SCT025

 

METAR (METeorological Aerodrome Report)

EGPI 260850Z 12007KT 9999 FEW012 06/05 Q1032

EGPI 260820Z 11007KT 9999 FEW012 05/04 Q1032

EGPI 260750Z AUTO 10005KT 300V360 9999 NCD 03/02 Q1032

EGPI 260720Z AUTO 14005KT 340V050 9999 FEW027/// 04/03 Q1031

EGPI 260650Z AUTO 14006KT 340V040 9999 BKN025/// 05/03 Q1031

EGPI 260620Z AUTO 17006KT 010V070 9999 OVC024/// 06/04 Q1031

EGPI 260550Z AUTO 18007KT 020V090 9999 OVC025/// 06/04 Q1031

EGPI 260520Z AUTO 18006KT 360V090 9999 BKN024/// 06/04 Q1031

To Charter a Jet Click here.